Palmer Lake, Colorado
Current Conditions -  °F | °C
As of 6:58 AM on Thursday 30 Oct 2014 (Local Time) from KAFF Reporting Station
Clear Clear  
Wind Chill: 24°   Ceiling: Unl
Heat Index: 33°   Visibility: 10mi
Dew Point: 21°   Wind: 10mph
Humidity: 64%   Direction: 350°N
Pressure: 30.37"   Gusts: NA
Location:  39.12°N, 104.92°W
Report Text: KAFF 301258Z AUTO 35009KT 10SM CLR 00/M06 A3037 RMK AO2 SLP278 T00031059
Loading
Personal Weather Stations






























Interactive Weather Map
Tropical Storm Tracking
New forecast layout! Learn more

10-Day Weather Forecast

Advertisements
Track Severe Weather on mobile